Terminal Aerodrome Forecast
Issued by NWS

Home | Current Version | Previous Version | Text Only | Print | Product List | Glossary On
Versions: 1 2 3 4 5 6 7 8 9 10 11 12 13 14 15
000
FTUS42 KMLB 050539
TAFISM
TAF
KISM 050539Z 0506/0606 16007KT P6SM SCT060
     FM050900 VRB03KT 3SM BR SCT010 BKN025
     FM051400 18007KT P6SM SCT030
     FM060400 30005KT P6SM BKN035 OVC060=

USA.gov is the U.S. government's official web portal to all federal, state and local government web resources and services.